Time;durP1;ratioP1;P1;durP2;ratioP2;P2;SDS_P1;SDS_P2;PMS_P1;PMS_P2;Temp;Humidity;BMP_temperature;BMP_pressure;BME280_temperature;BME280_humidity;BME280_pressure;Samples;Min_cycle;Max_cycle;Signal;HPM_P1;HPM_P2
2021/09/06 00:02:15;;;;;;;;;;;21.80;85.70;;;;;;4375599;32;42644;-79
2021/09/06 00:04:46;;;;;;;;;;;21.80;86.00;;;;;;4362073;32;43180;-81
2021/09/06 00:07:16;;;;;;;;;;;21.70;86.00;;;;;;4362688;32;43362;-80
2021/09/06 00:09:47;;;;;;;;;;;21.80;85.90;;;;;;4375751;32;42714;-80
2021/09/06 00:12:14;;;;;;;;;;;21.70;85.80;;;;;;4362222;32;43829;-79
2021/09/06 00:14:49;;;;;;;;;;;21.70;85.80;;;;;;4375929;32;43263;-79
2021/09/06 00:17:16;;;;;;;;;;;21.70;85.70;;;;;;4362091;32;42984;-80
2021/09/06 00:19:43;;;;;;;;;;;21.70;85.70;;;;;;4375406;32;44107;-79
2021/09/06 00:22:10;;;;;;;;;;;21.60;85.70;;;;;;4361868;32;44689;-79
2021/09/06 00:24:38;;;;;;;;;;;21.60;85.70;;;;;;4361950;32;42691;-79
2021/09/06 00:27:07;;;;;;;;;;;21.60;85.60;;;;;;4375568;32;44971;-79
2021/09/06 00:29:37;;;;;;;;;;;21.60;85.40;;;;;;4375721;32;44234;-80
2021/09/06 00:32:05;;;;;;;;;;;21.60;85.30;;;;;;4375793;32;44227;-80
2021/09/06 00:34:33;;;;;;;;;;;21.50;85.40;;;;;;4361852;32;41927;-79
2021/09/06 00:37:00;;;;;;;;;;;21.50;85.50;;;;;;4375280;32;42652;-79
2021/09/06 00:39:27;;;;;;;;;;;21.50;85.50;;;;;;4361933;32;44877;-79
2021/09/06 00:41:54;;;;;;;;;;;21.50;85.50;;;;;;4375431;32;44230;-79
2021/09/06 00:44:24;;;;;;;;;;;21.40;85.50;;;;;;4362222;32;43482;-79
2021/09/06 00:46:51;;;;;;;;;;;21.40;85.70;;;;;;4375476;32;44286;-79
2021/09/06 00:49:19;;;;;;;;;;;21.40;85.60;;;;;;4362200;32;44226;-79
2021/09/06 00:51:46;;;;;;;;;;;21.40;85.50;;;;;;4362017;32;43826;-79
2021/09/06 00:54:14;;;;;;;;;;;21.30;85.40;;;;;;4362001;32;43864;-80
2021/09/06 00:56:41;;;;;;;;;;;21.30;85.30;;;;;;4361777;32;43030;-80
2021/09/06 00:59:11;;;;;;;;;;;21.30;85.50;;;;;;4361590;32;43251;-80
2021/09/06 01:01:39;;;;;;;;;;;21.30;85.90;;;;;;4362321;32;20017;-80
2021/09/06 01:04:06;;;;;;;;;;;21.20;85.80;;;;;;4362097;32;43187;-79
2021/09/06 01:06:34;;;;;;;;;;;21.20;86.00;;;;;;4374851;32;44195;-79
2021/09/06 01:09:07;;;;;;;;;;;21.20;86.10;;;;;;4361417;32;44152;-79
2021/09/06 01:11:34;;;;;;;;;;;21.20;86.20;;;;;;4375229;32;44032;-79
2021/09/06 01:14:01;;;;;;;;;;;21.20;86.30;;;;;;4374651;32;45123;-79
2021/09/06 01:16:29;;;;;;;;;;;21.20;86.30;;;;;;4375340;32;42969;-79
2021/09/06 01:18:56;;;;;;;;;;;21.30;86.20;;;;;;4375072;32;42302;-80
2021/09/06 01:21:26;;;;;;;;;;;21.20;86.20;;;;;;4361533;32;43792;-80
2021/09/06 01:23:53;;;;;;;;;;;21.20;86.20;;;;;;4375182;32;45047;-79
2021/09/06 01:26:20;;;;;;;;;;;21.20;86.30;;;;;;4375055;32;43484;-79
2021/09/06 01:28:47;;;;;;;;;;;21.20;86.20;;;;;;4361337;32;42667;-79
2021/09/06 01:31:14;;;;;;;;;;;21.20;86.10;;;;;;4374680;32;42836;-80
2021/09/06 01:33:42;;;;;;;;;;;21.10;85.90;;;;;;4361223;32;43459;-79
2021/09/06 01:36:12;;;;;;;;;;;21.10;85.80;;;;;;4361892;32;45987;-79
2021/09/06 01:38:39;;;;;;;;;;;21.10;85.60;;;;;;4374693;32;42781;-79
2021/09/06 01:41:09;;;;;;;;;;;21.10;85.80;;;;;;4374561;32;43905;-79
2021/09/06 01:43:39;;;;;;;;;;;21.10;85.80;;;;;;4361841;32;43052;-79
2021/09/06 01:46:06;;;;;;;;;;;21.00;85.70;;;;;;4374653;32;44223;-80
2021/09/06 01:48:34;;;;;;;;;;;21.00;85.60;;;;;;4375021;32;44577;-79
2021/09/06 01:51:01;;;;;;;;;;;21.00;85.70;;;;;;4374467;32;43988;-79
2021/09/06 01:53:28;;;;;;;;;;;21.00;85.80;;;;;;4374827;32;43013;-80
2021/09/06 01:55:58;;;;;;;;;;;20.90;85.80;;;;;;4374477;32;44024;-80
2021/09/06 01:58:28;;;;;;;;;;;20.90;85.80;;;;;;4360649;32;43789;-79
2021/09/06 02:00:55;;;;;;;;;;;20.90;85.80;;;;;;4360742;32;44121;-79
2021/09/06 02:03:22;;;;;;;;;;;20.90;86.00;;;;;;4374217;32;44203;-79
2021/09/06 02:05:53;;;;;;;;;;;20.80;86.10;;;;;;4361402;32;46056;-80
2021/09/06 02:08:20;;;;;;;;;;;20.80;86.10;;;;;;4361308;32;43494;-79
2021/09/06 02:10:50;;;;;;;;;;;20.90;86.10;;;;;;4376612;32;42826;-80
2021/09/06 02:13:20;;;;;;;;;;;20.80;86.20;;;;;;4364374;32;43207;-80
2021/09/06 02:15:51;;;;;;;;;;;20.80;86.20;;;;;;4377927;32;44037;-79
2021/09/06 02:18:18;;;;;;;;;;;20.80;86.20;;;;;;4377586;32;45733;-79
2021/09/06 02:20:45;;;;;;;;;;;20.80;86.30;;;;;;4377056;32;43216;-80
2021/09/06 02:23:13;;;;;;;;;;;20.80;86.30;;;;;;4364141;32;44301;-79
2021/09/06 02:25:40;;;;;;;;;;;20.80;86.50;;;;;;4377411;32;43407;-79
2021/09/06 02:28:07;;;;;;;;;;;20.70;86.50;;;;;;4377165;32;43794;-79
2021/09/06 02:30:34;;;;;;;;;;;20.80;86.80;;;;;;4377513;32;43484;-79
2021/09/06 02:33:02;;;;;;;;;;;20.80;86.80;;;;;;4377585;32;44195;-80
2021/09/06 02:35:29;;;;;;;;;;;20.80;87.60;;;;;;4363766;32;43339;-80
2021/09/06 02:37:56;;;;;;;;;;;20.80;86.80;;;;;;4377037;32;43942;-80
2021/09/06 02:40:24;;;;;;;;;;;20.70;86.80;;;;;;4377373;32;43245;-79
2021/09/06 02:42:51;;;;;;;;;;;20.70;86.90;;;;;;4376710;32;44302;-80
2021/09/06 02:45:19;;;;;;;;;;;20.80;86.80;;;;;;4376854;32;44240;-80
2021/09/06 02:47:47;;;;;;;;;;;20.80;86.90;;;;;;4377211;32;44320;-80
2021/09/06 02:50:15;;;;;;;;;;;20.70;87.00;;;;;;4363695;32;43584;-79
2021/09/06 02:52:42;;;;;;;;;;;20.70;87.00;;;;;;4364059;32;44003;-79
2021/09/06 02:55:10;;;;;;;;;;;20.80;87.80;;;;;;4363491;32;43866;-79
2021/09/06 02:57:43;;;;;;;;;;;20.70;87.00;;;;;;4376624;32;43820;-79
2021/09/06 03:00:10;;;;;;;;;;;20.70;87.00;;;;;;4376719;32;43100;-80
2021/09/06 03:02:37;;;;;;;;;;;20.70;87.10;;;;;;4363063;32;43972;-81
2021/09/06 03:05:06;;;;;;;;;;;20.70;87.10;;;;;;4376589;32;44072;-79
2021/09/06 03:07:34;;;;;;;;;;;20.70;87.10;;;;;;4376645;32;42854;-80
2021/09/06 03:10:05;;;;;;;;;;;20.70;87.00;;;;;;4363460;32;43473;-80
2021/09/06 03:12:32;;;;;;;;;;;20.70;87.00;;;;;;4351179;32;43894;-80
2021/09/06 03:15:02;;;;;;;;;;;20.60;86.60;;;;;;4376802;32;43322;-79
2021/09/06 03:17:30;;;;;;;;;;;20.60;86.60;;;;;;4363150;32;44115;-79
2021/09/06 03:19:57;;;;;;;;;;;20.60;86.50;;;;;;4376408;32;42286;-79
2021/09/06 03:22:24;;;;;;;;;;;20.60;86.60;;;;;;4375769;32;44097;-79
2021/09/06 03:24:54;;;;;;;;;;;20.60;86.50;;;;;;4376471;32;42611;-80
2021/09/06 03:27:21;;;;;;;;;;;20.50;86.50;;;;;;4376485;32;43049;-80
2021/09/06 03:29:48;;;;;;;;;;;20.50;86.40;;;;;;4376600;32;43844;-80
2021/09/06 03:32:16;;;;;;;;;;;20.50;86.50;;;;;;4376460;32;45575;-79
2021/09/06 03:34:43;;;;;;;;;;;20.40;86.40;;;;;;4362830;32;42928;-79
2021/09/06 03:37:10;;;;;;;;;;;20.40;86.40;;;;;;4375946;32;43972;-79
2021/09/06 03:39:37;;;;;;;;;;;20.40;86.40;;;;;;4375820;32;44873;-79
2021/09/06 03:42:07;;;;;;;;;;;20.40;86.40;;;;;;4376376;32;43020;-80
2021/09/06 03:44:36;;;;;;;;;;;20.30;86.50;;;;;;4375918;32;43489;-79
2021/09/06 03:47:03;;;;;;;;;;;20.30;86.50;;;;;;4362412;32;43559;-79
2021/09/06 03:49:30;;;;;;;;;;;20.30;86.30;;;;;;4376399;32;43289;-80
2021/09/06 03:52:00;;;;;;;;;;;20.30;86.20;;;;;;4376399;32;44227;-80
2021/09/06 03:54:27;;;;;;;;;;;20.20;85.90;;;;;;4362796;32;43279;-79
2021/09/06 03:56:54;;;;;;;;;;;20.20;85.80;;;;;;4362962;32;43553;-80
2021/09/06 03:59:22;;;;;;;;;;;20.20;85.50;;;;;;4375896;32;42882;-79
2021/09/06 04:01:50;;;;;;;;;;;20.20;85.50;;;;;;4375871;32;43258;-79
2021/09/06 04:04:18;;;;;;;;;;;20.10;85.50;;;;;;4376017;32;43884;-79
2021/09/06 04:06:45;;;;;;;;;;;20.10;85.40;;;;;;4375871;32;43713;-80
2021/09/06 04:09:12;;;;;;;;;;;20.00;85.60;;;;;;4362023;32;44987;-79
2021/09/06 04:11:39;;;;;;;;;;;20.00;85.60;;;;;;4375507;32;44955;-80
2021/09/06 04:14:15;;;;;;;;;;;20.00;85.50;;;;;;4362592;32;42673;-80
2021/09/06 04:16:45;;;;;;;;;;;20.00;85.50;;;;;;4362469;32;43748;-79
2021/09/06 04:19:16;;;;;;;;;;;20.00;85.50;;;;;;4375733;32;42693;-80
2021/09/06 04:21:43;;;;;;;;;;;19.90;85.50;;;;;;4375466;32;43844;-80
2021/09/06 04:24:10;;;;;;;;;;;19.90;85.70;;;;;;4375222;32;44866;-80
2021/09/06 04:26:37;;;;;;;;;;;19.90;85.70;;;;;;4362015;32;43458;-80
2021/09/06 04:29:10;;;;;;;;;;;19.80;85.70;;;;;;4375246;32;43891;-80
2021/09/06 04:31:37;;;;;;;;;;;19.80;85.90;;;;;;4375376;32;42290;-80
2021/09/06 04:34:04;;;;;;;;;;;19.80;86.10;;;;;;4361065;32;43828;-79
2021/09/06 04:36:31;;;;;;;;;;;19.80;87.00;;;;;;4361747;32;44123;-80
2021/09/06 04:38:58;;;;;;;;;;;19.70;86.30;;;;;;4375244;32;44740;-80
2021/09/06 04:41:25;;;;;;;;;;;19.70;86.50;;;;;;4375309;32;43184;-80
2021/09/06 04:43:53;;;;;;;;;;;19.70;86.50;;;;;;4375087;32;44231;-80
2021/09/06 04:46:25;;;;;;;;;;;19.70;86.60;;;;;;4375397;32;43383;-80
2021/09/06 04:48:52;;;;;;;;;;;19.70;86.70;;;;;;4375047;32;44239;-80
2021/09/06 04:51:20;;;;;;;;;;;19.70;86.80;;;;;;4375476;32;44181;-80
2021/09/06 04:53:50;;;;;;;;;;;19.70;87.00;;;;;;4375483;32;44233;-80
2021/09/06 04:56:19;;;;;;;;;;;19.60;87.00;;;;;;4362138;32;44386;-80
2021/09/06 04:58:46;;;;;;;;;;;19.60;87.00;;;;;;4361760;32;44203;-80
2021/09/06 05:01:13;;;;;;;;;;;19.70;87.20;;;;;;4375336;32;43889;-80
2021/09/06 05:03:41;;;;;;;;;;;19.60;87.00;;;;;;4375240;32;43389;-80
2021/09/06 05:06:11;;;;;;;;;;;19.60;87.10;;;;;;4361352;32;43269;-80
2021/09/06 05:08:38;;;;;;;;;;;19.60;87.10;;;;;;4361387;32;42345;-80
2021/09/06 05:11:05;;;;;;;;;;;19.60;87.10;;;;;;4361264;32;44230;-80
2021/09/06 05:13:32;;;;;;;;;;;19.60;87.20;;;;;;4375270;32;43539;-80
2021/09/06 05:16:00;;;;;;;;;;;19.60;87.20;;;;;;4375298;32;44280;-80
2021/09/06 05:18:32;;;;;;;;;;;19.60;87.20;;;;;;4361939;32;42973;-80
2021/09/06 05:21:00;;;;;;;;;;;19.60;87.30;;;;;;4374814;32;43929;-80
2021/09/06 05:23:30;;;;;;;;;;;19.60;87.30;;;;;;4374884;32;43318;-80
2021/09/06 05:25:57;;;;;;;;;;;19.60;87.50;;;;;;4374747;32;43950;-80
2021/09/06 05:28:24;;;;;;;;;;;19.60;87.50;;;;;;4374764;32;43066;-80
2021/09/06 05:30:51;;;;;;;;;;;19.60;87.70;;;;;;4375058;32;42817;-80
2021/09/06 05:33:19;;;;;;;;;;;19.60;87.60;;;;;;4374403;32;46388;-80
2021/09/06 05:35:46;;;;;;;;;;;19.60;87.50;;;;;;4374550;32;44223;-79
2021/09/06 05:38:13;;;;;;;;;;;19.60;87.50;;;;;;4374708;32;44314;-80
2021/09/06 05:40:43;;;;;;;;;;;19.50;87.50;;;;;;4374927;32;44194;-79
2021/09/06 05:43:13;;;;;;;;;;;19.50;87.70;;;;;;4361611;32;44221;-80
2021/09/06 05:45:40;;;;;;;;;;;19.50;87.80;;;;;;4376937;32;43862;-80
2021/09/06 05:48:08;;;;;;;;;;;19.50;88.00;;;;;;4364686;32;43215;-80
2021/09/06 05:50:35;;;;;;;;;;;19.50;88.10;;;;;;4378241;32;43513;-80
2021/09/06 05:53:02;;;;;;;;;;;19.50;88.20;;;;;;4364747;32;43300;-80
2021/09/06 05:55:29;;;;;;;;;;;19.50;88.40;;;;;;4377449;32;42365;-80
2021/09/06 05:57:57;;;;;;;;;;;19.50;88.50;;;;;;4377709;32;43877;-80
2021/09/06 06:00:24;;;;;;;;;;;19.50;88.60;;;;;;4377968;32;45732;-80
2021/09/06 06:02:51;;;;;;;;;;;19.50;88.60;;;;;;4363921;32;44045;-80
2021/09/06 06:05:19;;;;;;;;;;;19.50;88.70;;;;;;4364040;32;45468;-80
2021/09/06 06:07:46;;;;;;;;;;;19.50;88.80;;;;;;4377685;32;44190;-80
2021/09/06 06:10:13;;;;;;;;;;;19.50;88.80;;;;;;4364482;32;44215;-80
2021/09/06 06:12:43;;;;;;;;;;;19.50;88.90;;;;;;4377318;32;44047;-80
2021/09/06 06:15:11;;;;;;;;;;;19.50;89.00;;;;;;4378101;32;43180;-80
2021/09/06 06:17:39;;;;;;;;;;;19.50;89.00;;;;;;4364364;32;43811;-79
2021/09/06 06:20:07;;;;;;;;;;;19.50;89.20;;;;;;4363828;32;42714;-80
2021/09/06 06:22:34;;;;;;;;;;;19.50;89.20;;;;;;4363761;32;43513;-80
2021/09/06 06:25:04;;;;;;;;;;;19.50;89.40;;;;;;4363971;32;44738;-80
2021/09/06 06:27:31;;;;;;;;;;;19.50;89.40;;;;;;4377143;32;43292;-80
2021/09/06 06:29:59;;;;;;;;;;;19.50;89.50;;;;;;4377560;32;43271;-80
2021/09/06 06:32:26;;;;;;;;;;;19.50;89.60;;;;;;4364181;32;43564;-80
2021/09/06 06:34:57;;;;;;;;;;;19.40;89.80;;;;;;4364180;32;42819;-80
2021/09/06 06:37:24;;;;;;;;;;;19.50;89.90;;;;;;4376970;32;42779;-80
2021/09/06 06:39:54;;;;;;;;;;;19.50;90.30;;;;;;4376999;32;44231;-80
2021/09/06 06:42:21;;;;;;;;;;;19.50;90.00;;;;;;4376920;32;43859;-80
2021/09/06 06:44:48;;;;;;;;;;;19.40;90.00;;;;;;4376871;32;44049;-80
2021/09/06 06:47:18;;;;;;;;;;;19.50;90.10;;;;;;4363378;32;43281;-80
2021/09/06 06:49:46;;;;;;;;;;;19.50;90.20;;;;;;4377052;32;42847;-80
2021/09/06 06:52:13;;;;;;;;;;;19.40;90.10;;;;;;4377138;32;43280;-80
2021/09/06 06:54:43;;;;;;;;;;;19.50;90.20;;;;;;4376978;32;44955;-80
2021/09/06 06:57:10;;;;;;;;;;;19.40;90.20;;;;;;4375867;32;43277;-80
2021/09/06 06:59:38;;;;;;;;;;;19.40;90.30;;;;;;4363175;32;43008;-79
2021/09/06 07:02:05;;;;;;;;;;;19.40;90.30;;;;;;4363220;32;42305;-80
2021/09/06 07:04:33;;;;;;;;;;;19.50;90.40;;;;;;4363367;32;44857;-80
2021/09/06 07:07:00;;;;;;;;;;;19.50;90.50;;;;;;4376514;32;44116;-81
2021/09/06 07:09:27;;;;;;;;;;;19.50;90.60;;;;;;4376878;32;44962;-80
2021/09/06 07:11:59;;;;;;;;;;;19.50;90.60;;;;;;4376447;32;44007;-80
2021/09/06 07:14:27;;;;;;;;;;;19.50;90.70;;;;;;4377087;32;43936;-79
2021/09/06 07:16:56;;;;;;;;;;;19.50;90.70;;;;;;4376405;32;43238;-80
2021/09/06 07:19:23;;;;;;;;;;;19.50;90.80;;;;;;4376893;32;43954;-80
2021/09/06 07:21:51;;;;;;;;;;;19.50;90.90;;;;;;4362897;32;42455;-80
2021/09/06 07:24:27;;;;;;;;;;;19.50;90.90;;;;;;4364301;32;43481;-80
2021/09/06 07:26:57;;;;;;;;;;;19.50;91.00;;;;;;4363187;32;44782;-80
2021/09/06 07:29:24;;;;;;;;;;;19.50;91.10;;;;;;4363202;32;43608;-80
2021/09/06 07:31:51;;;;;;;;;;;19.50;91.20;;;;;;4376610;32;44546;-79
2021/09/06 07:34:18;;;;;;;;;;;19.50;91.20;;;;;;4376146;32;43773;-80
2021/09/06 07:36:45;;;;;;;;;;;19.50;91.30;;;;;;4376142;32;44139;-79
2021/09/06 07:39:16;;;;;;;;;;;19.50;91.30;;;;;;4376078;32;42761;-80
2021/09/06 07:41:46;;;;;;;;;;;19.50;91.40;;;;;;4376550;32;44957;-79
2021/09/06 07:44:13;;;;;;;;;;;19.60;91.50;;;;;;4376325;32;45162;-80
2021/09/06 07:46:42;;;;;;;;;;;19.60;91.50;;;;;;4375977;32;42652;-80
2021/09/06 07:49:09;;;;;;;;;;;19.60;91.60;;;;;;4375889;32;44886;-81
2021/09/06 07:51:37;;;;;;;;;;;19.60;91.60;;;;;;4362581;32;43932;-79
2021/09/06 07:54:06;;;;;;;;;;;19.60;91.60;;;;;;4362939;32;43445;-79
2021/09/06 07:56:33;;;;;;;;;;;19.60;91.70;;;;;;4376081;32;44020;-79
2021/09/06 07:59:00;;;;;;;;;;;19.60;91.70;;;;;;4376198;32;44203;-79
2021/09/06 08:01:28;;;;;;;;;;;19.60;91.70;;;;;;4362599;32;43953;-80
2021/09/06 08:03:55;;;;;;;;;;;19.70;91.80;;;;;;4376008;32;43017;-79
2021/09/06 08:06:22;;;;;;;;;;;19.70;91.80;;;;;;4375765;32;44231;-79
2021/09/06 08:08:49;;;;;;;;;;;19.70;91.80;;;;;;4375595;32;43483;-79
2021/09/06 08:11:16;;;;;;;;;;;19.70;91.90;;;;;;4362615;32;42964;-80
2021/09/06 08:13:43;;;;;;;;;;;19.70;91.90;;;;;;4376089;32;43984;-79
2021/09/06 08:16:10;;;;;;;;;;;19.70;91.90;;;;;;4375948;32;43224;-80
2021/09/06 08:18:41;;;;;;;;;;;19.70;92.00;;;;;;4376004;32;43372;-80
2021/09/06 08:21:11;;;;;;;;;;;19.70;91.90;;;;;;4362021;32;43466;-79
2021/09/06 08:23:38;;;;;;;;;;;19.80;92.00;;;;;;4375686;32;43927;-79
2021/09/06 08:26:05;;;;;;;;;;;19.80;92.00;;;;;;4362246;32;42652;-79
2021/09/06 08:28:35;;;;;;;;;;;19.80;92.00;;;;;;4375821;32;43941;-80
2021/09/06 08:31:03;;;;;;;;;;;19.80;92.00;;;;;;4362125;32;43026;-79
2021/09/06 08:33:30;;;;;;;;;;;19.80;92.00;;;;;;4375300;32;43332;-79
2021/09/06 08:35:57;;;;;;;;;;;19.80;92.10;;;;;;4375253;32;44532;-80
2021/09/06 08:38:25;;;;;;;;;;;19.80;92.10;;;;;;4375561;32;44129;-79
2021/09/06 08:40:55;;;;;;;;;;;19.80;92.10;;;;;;4362510;32;43544;-79
2021/09/06 08:43:24;;;;;;;;;;;19.80;92.10;;;;;;4362380;32;43478;-79
2021/09/06 08:45:51;;;;;;;;;;;19.90;92.10;;;;;;4375149;32;43299;-79
2021/09/06 08:48:18;;;;;;;;;;;19.90;92.10;;;;;;4374996;32;44295;-79
2021/09/06 08:50:46;;;;;;;;;;;19.90;92.10;;;;;;4361557;32;43934;-79
2021/09/06 08:53:13;;;;;;;;;;;19.90;92.10;;;;;;4375111;32;43288;-79
2021/09/06 08:55:42;;;;;;;;;;;19.90;92.10;;;;;;4362044;32;43013;-79
2021/09/06 08:58:31;;;;;;;;;;;20.00;92.10;;;;;;4375555;32;45477;-79
2021/09/06 09:00:59;;;;;;;;;;;19.90;92.10;;;;;;4361495;32;42946;-78
2021/09/06 09:03:26;;;;;;;;;;;20.00;92.10;;;;;;4361525;32;44204;-80
2021/09/06 09:05:57;;;;;;;;;;;20.00;92.10;;;;;;4361552;32;44607;-79
2021/09/06 09:08:25;;;;;;;;;;;20.00;92.00;;;;;;4361374;32;43790;-79
2021/09/06 09:10:55;;;;;;;;;;;20.00;92.00;;;;;;4374957;32;43820;-79
2021/09/06 09:13:26;;;;;;;;;;;20.00;92.00;;;;;;4375239;32;43225;-79
2021/09/06 09:15:54;;;;;;;;;;;20.00;92.00;;;;;;4375257;32;46021;-79
2021/09/06 09:18:32;;;;;;;;;;;20.00;92.00;;;;;;4374979;32;45247;-79
2021/09/06 09:21:05;;;;;;;;;;;20.00;92.00;;;;;;4361551;32;44045;-79
2021/09/06 09:23:42;;;;;;;;;;;20.10;92.00;;;;;;4362002;32;44220;-79
2021/09/06 09:26:10;;;;;;;;;;;20.10;92.00;;;;;;4374620;32;43036;-78
2021/09/06 09:28:41;;;;;;;;;;;20.10;92.00;;;;;;4375097;32;43974;-78
2021/09/06 09:31:10;;;;;;;;;;;20.10;92.00;;;;;;4361274;32;42714;-80
2021/09/06 09:33:53;;;;;;;;;;;20.10;92.00;;;;;;4374739;32;43471;-79
2021/09/06 09:36:33;;;;;;;;;;;20.10;92.00;;;;;;4374851;32;44135;-78
2021/09/06 09:39:09;;;;;;;;;;;20.10;92.00;;;;;;4361712;32;44235;-78
2021/09/06 09:41:36;;;;;;;;;;;20.10;91.90;;;;;;4361387;32;44633;-78
2021/09/06 09:44:04;;;;;;;;;;;20.10;91.90;;;;;;4361004;32;43039;-78
2021/09/06 09:46:31;;;;;;;;;;;20.10;91.90;;;;;;4374450;32;44251;-78
2021/09/06 09:49:09;;;;;;;;;;;20.10;91.80;;;;;;4361203;32;44241;-77
2021/09/06 09:51:36;;;;;;;;;;;20.20;91.80;;;;;;4361539;32;44143;-78
2021/09/06 09:54:05;;;;;;;;;;;20.20;91.80;;;;;;4374858;32;43783;-78
2021/09/06 09:56:32;;;;;;;;;;;20.20;91.80;;;;;;4360979;32;42783;-78
2021/09/06 09:58:59;;;;;;;;;;;20.20;91.70;;;;;;4374594;32;42825;-79
2021/09/06 10:01:30;;;;;;;;;;;20.20;91.70;;;;;;4360995;32;43982;-78
2021/09/06 10:03:59;;;;;;;;;;;20.20;91.70;;;;;;4361497;32;43040;-78
2021/09/06 10:06:26;;;;;;;;;;;20.20;91.60;;;;;;4375598;32;20038;-78
2021/09/06 10:08:54;;;;;;;;;;;20.20;91.60;;;;;;4361465;32;43888;-78
2021/09/06 10:11:33;;;;;;;;;;;20.30;91.60;;;;;;4374657;32;44143;-78
2021/09/06 10:14:10;;;;;;;;;;;20.30;91.50;;;;;;4360939;32;44559;-77
2021/09/06 10:16:38;;;;;;;;;;;20.30;91.50;;;;;;4374717;32;44174;-77
2021/09/06 10:19:08;;;;;;;;;;;20.30;91.50;;;;;;4374242;32;43020;-78
2021/09/06 10:21:40;;;;;;;;;;;20.30;91.50;;;;;;4374230;32;42282;-78
2021/09/06 10:24:16;;;;;;;;;;;20.30;91.50;;;;;;4374393;32;44920;-78
2021/09/06 10:26:46;;;;;;;;;;;20.30;91.40;;;;;;4361095;32;43016;-78
2021/09/06 10:29:15;;;;;;;;;;;20.30;91.40;;;;;;4361173;32;43924;-77
2021/09/06 10:31:42;;;;;;;;;;;20.40;91.50;;;;;;4376105;32;43494;-77
2021/09/06 10:34:19;;;;;;;;;;;20.40;91.40;;;;;;4364015;32;43193;-77
2021/09/06 10:37:06;;;;;;;;;;;20.40;91.40;;;;;;4377962;32;20409;-77
2021/09/06 10:39:47;;;;;;;;;;;20.40;91.40;;;;;;4363644;32;43788;-77
2021/09/06 10:42:16;;;;;;;;;;;20.40;91.40;;;;;;4377547;32;43198;-77
2021/09/06 10:44:43;;;;;;;;;;;20.40;91.40;;;;;;4363867;32;44214;-77
2021/09/06 10:47:12;;;;;;;;;;;20.40;91.40;;;;;;4363873;32;46005;-77
2021/09/06 10:49:43;;;;;;;;;;;20.40;91.40;;;;;;4377426;32;43885;-77
2021/09/06 10:52:11;;;;;;;;;;;20.50;91.40;;;;;;4377352;32;43490;-77
2021/09/06 10:54:39;;;;;;;;;;;20.50;91.40;;;;;;4377212;32;43696;-77
2021/09/06 10:57:12;;;;;;;;;;;20.50;91.40;;;;;;4363992;32;43956;-77
2021/09/06 10:59:43;;;;;;;;;;;20.50;91.30;;;;;;4363448;32;44172;-76
2021/09/06 11:02:10;;;;;;;;;;;20.60;91.40;;;;;;4363164;32;44624;-77
2021/09/06 11:04:38;;;;;;;;;;;20.60;91.40;;;;;;4376875;32;42279;-77
2021/09/06 11:07:06;;;;;;;;;;;20.60;91.40;;;;;;4364586;32;20001;-77
2021/09/06 11:09:37;;;;;;;;;;;20.60;91.30;;;;;;4376978;32;43540;-77
2021/09/06 11:12:05;;;;;;;;;;;20.60;91.30;;;;;;4363669;32;42709;-76
2021/09/06 11:14:33;;;;;;;;;;;20.70;91.30;;;;;;4376609;32;42162;-77
2021/09/06 11:17:00;;;;;;;;;;;20.70;91.30;;;;;;4376409;32;43615;-77
2021/09/06 11:19:29;;;;;;;;;;;20.70;91.30;;;;;;4376727;32;42532;-76
2021/09/06 11:21:57;;;;;;;;;;;20.70;91.30;;;;;;4376954;32;43702;-77
2021/09/06 11:24:26;;;;;;;;;;;20.70;91.30;;;;;;4363267;32;43660;-77
2021/09/06 11:26:53;;;;;;;;;;;20.80;91.30;;;;;;4376238;32;43199;-76
2021/09/06 11:29:20;;;;;;;;;;;20.80;91.30;;;;;;4376206;32;44537;-76
2021/09/06 11:31:48;;;;;;;;;;;20.80;91.30;;;;;;4376472;32;42760;-77
2021/09/06 11:34:16;;;;;;;;;;;20.80;91.30;;;;;;4363208;32;43544;-77
2021/09/06 11:36:45;;;;;;;;;;;20.90;91.30;;;;;;4363187;32;43855;-77
2021/09/06 11:39:12;;;;;;;;;;;20.90;91.30;;;;;;4362733;32;42373;-76
2021/09/06 11:41:39;;;;;;;;;;;20.90;91.30;;;;;;4376263;32;43860;-77
2021/09/06 11:44:06;;;;;;;;;;;20.90;91.30;;;;;;4375789;32;44126;-77
2021/09/06 11:46:34;;;;;;;;;;;21.00;91.30;;;;;;4376231;32;42546;-77
2021/09/06 11:49:01;;;;;;;;;;;21.00;91.30;;;;;;4363083;32;43738;-76
2021/09/06 11:51:31;;;;;;;;;;;21.00;91.30;;;;;;4375879;32;43469;-77
2021/09/06 11:53:59;;;;;;;;;;;21.10;91.30;;;;;;4362580;32;43934;-77
2021/09/06 11:56:27;;;;;;;;;;;21.10;91.30;;;;;;4375914;32;42289;-77
2021/09/06 11:58:55;;;;;;;;;;;21.10;91.30;;;;;;4375773;32;44009;-76
2021/09/06 12:01:23;;;;;;;;;;;21.10;91.30;;;;;;4376041;32;43706;-77
2021/09/06 12:03:50;;;;;;;;;;;21.10;91.30;;;;;;4375921;32;43582;-77
2021/09/06 12:06:19;;;;;;;;;;;21.20;91.30;;;;;;4375845;32;43198;-77
2021/09/06 12:08:53;;;;;;;;;;;21.20;91.30;;;;;;4377388;32;20035;-76
2021/09/06 12:11:40;;;;;;;;;;;21.20;91.30;;;;;;4375562;32;45768;-76
2021/09/06 12:14:11;;;;;;;;;;;21.30;91.30;;;;;;4376059;32;43882;-76
2021/09/06 12:16:38;;;;;;;;;;;21.30;91.30;;;;;;4376113;32;44278;-76
2021/09/06 12:19:16;;;;;;;;;;;21.30;91.30;;;;;;4375719;32;43727;-76
2021/09/06 12:21:44;;;;;;;;;;;21.40;91.30;;;;;;4362418;32;43176;-77
2021/09/06 12:24:11;;;;;;;;;;;21.40;91.30;;;;;;4375513;32;42880;-76
2021/09/06 12:26:43;;;;;;;;;;;21.40;91.30;;;;;;4362468;32;43153;-76
2021/09/06 12:29:10;;;;;;;;;;;21.50;91.30;;;;;;4375495;32;42863;-76
2021/09/06 12:31:42;;;;;;;;;;;21.50;91.30;;;;;;4375613;32;43023;-77
2021/09/06 12:34:12;;;;;;;;;;;21.50;91.30;;;;;;4375876;32;43714;-76
2021/09/06 12:36:42;;;;;;;;;;;21.50;91.30;;;;;;4375265;32;42710;-76
2021/09/06 12:39:09;;;;;;;;;;;21.60;91.30;;;;;;4362885;32;20420;-76
2021/09/06 12:41:36;;;;;;;;;;;21.60;91.30;;;;;;4375146;32;42070;-76
2021/09/06 12:44:03;;;;;;;;;;;21.60;91.30;;;;;;4375295;32;42197;-77
2021/09/06 12:46:31;;;;;;;;;;;21.60;91.30;;;;;;4361576;32;44617;-77
2021/09/06 12:48:58;;;;;;;;;;;21.70;91.30;;;;;;4362396;32;43894;-76
2021/09/06 12:51:27;;;;;;;;;;;21.70;91.30;;;;;;4375649;32;42840;-77
2021/09/06 12:53:54;;;;;;;;;;;21.70;91.20;;;;;;4375113;32;43478;-77
2021/09/06 12:56:21;;;;;;;;;;;21.80;91.30;;;;;;4375030;32;42415;-76
2021/09/06 12:58:50;;;;;;;;;;;21.80;91.30;;;;;;4375506;32;43293;-76
2021/09/06 13:01:17;;;;;;;;;;;21.80;91.30;;;;;;4361265;32;42902;-77
2021/09/06 13:03:46;;;;;;;;;;;21.90;91.30;;;;;;4374964;32;42661;-76
2021/09/06 13:06:13;;;;;;;;;;;21.90;91.30;;;;;;4375060;32;42081;-76
2021/09/06 13:08:40;;;;;;;;;;;21.90;91.30;;;;;;4361508;32;42845;-77
2021/09/06 13:11:10;;;;;;;;;;;22.00;91.30;;;;;;4374870;32;42651;-76
2021/09/06 13:13:38;;;;;;;;;;;22.00;91.30;;;;;;4361877;32;43151;-76
2021/09/06 13:16:08;;;;;;;;;;;22.10;91.30;;;;;;4361968;32;43685;-78
2021/09/06 13:18:35;;;;;;;;;;;22.10;91.30;;;;;;4374917;32;43198;-77
2021/09/06 13:21:03;;;;;;;;;;;22.10;91.30;;;;;;4375163;32;44194;-76
2021/09/06 13:23:31;;;;;;;;;;;22.20;91.30;;;;;;4361184;32;42870;-77
2021/09/06 13:26:03;;;;;;;;;;;22.30;91.30;;;;;;4361820;32;43028;-76
2021/09/06 13:28:30;;;;;;;;;;;22.30;91.30;;;;;;4361841;32;43229;-76
2021/09/06 13:31:02;;;;;;;;;;;22.30;91.20;;;;;;4375182;32;44256;-76
2021/09/06 13:33:29;;;;;;;;;;;22.40;91.20;;;;;;4361814;32;43199;-76
2021/09/06 13:36:08;;;;;;;;;;;22.40;91.20;;;;;;4362070;32;42134;-77
2021/09/06 13:38:35;;;;;;;;;;;22.50;91.10;;;;;;4375284;32;43719;-76
2021/09/06 13:41:02;;;;;;;;;;;22.50;91.10;;;;;;4374895;32;43509;-77
2021/09/06 13:43:32;;;;;;;;;;;22.50;91.10;;;;;;4374772;32;43866;-77
2021/09/06 13:46:02;;;;;;;;;;;22.50;91.00;;;;;;4375060;32;42875;-76
2021/09/06 13:48:30;;;;;;;;;;;22.60;91.00;;;;;;4360854;32;44939;-77
2021/09/06 13:50:57;;;;;;;;;;;22.60;91.00;;;;;;4374525;32;42700;-76
2021/09/06 13:53:24;;;;;;;;;;;22.60;91.00;;;;;;4361235;32;43343;-77
2021/09/06 13:55:51;;;;;;;;;;;22.70;91.00;;;;;;4374711;32;43741;-76
2021/09/06 13:58:18;;;;;;;;;;;22.70;90.90;;;;;;4374773;32;43909;-76
2021/09/06 14:00:45;;;;;;;;;;;22.70;90.90;;;;;;4374803;32;43603;-76
2021/09/06 14:03:13;;;;;;;;;;;22.80;90.80;;;;;;4374387;32;43216;-77
2021/09/06 14:05:40;;;;;;;;;;;22.80;90.70;;;;;;4375684;32;43057;-77
2021/09/06 14:08:12;;;;;;;;;;;22.90;90.70;;;;;;4377586;32;41986;-76
2021/09/06 14:10:39;;;;;;;;;;;22.90;90.60;;;;;;4378507;32;19997;-76
2021/09/06 14:13:06;;;;;;;;;;;22.90;90.50;;;;;;4377725;32;43035;-76
2021/09/06 14:15:35;;;;;;;;;;;23.00;90.50;;;;;;4363951;32;42807;-77
2021/09/06 14:18:03;;;;;;;;;;;23.00;90.40;;;;;;4377304;32;43131;-77
2021/09/06 14:20:30;;;;;;;;;;;23.00;90.40;;;;;;4364270;32;43044;-76
2021/09/06 14:22:57;;;;;;;;;;;23.10;90.40;;;;;;4377672;32;43981;-76
2021/09/06 14:25:29;;;;;;;;;;;23.10;90.20;;;;;;4377210;32;44254;-76